createdAt,value
2018-04-17T00:10:51.451Z,15.2
2018-04-17T00:25:51.487Z,15.9
2018-04-17T00:40:51.441Z,15.7
2018-04-17T00:55:54.399Z,21.1
2018-04-17T01:16:07.995Z,21.5
2018-04-17T01:31:08.185Z,19.9
2018-04-17T01:46:22.379Z,15.2
2018-04-17T02:06:22.119Z,19.9
2018-04-17T02:36:22.320Z,18.7
2018-04-17T02:51:24.364Z,21.6
2018-04-17T03:26:34.422Z,16.3
2018-04-17T03:41:46.298Z,22
2018-04-17T04:01:45.951Z,20.3
2018-04-17T04:16:46.049Z,22.9
2018-04-17T04:31:46.240Z,18.5
2018-04-17T04:46:48.723Z,21.5
2018-04-17T05:06:59.113Z,20.5
2018-04-17T05:37:13.311Z,30.2
2018-04-17T05:57:12.795Z,29.3
2018-04-17T06:12:12.752Z,23.2
2018-04-17T06:27:12.925Z,26.2
2018-04-17T07:02:26.726Z,30.3
2018-04-17T07:17:25.373Z,28.1
2018-04-17T07:32:38.563Z,28.5
2018-04-17T07:52:38.326Z,29.1
2018-04-17T08:07:38.532Z,22.8
2018-04-17T08:22:38.549Z,26.9
2018-04-17T08:37:39.888Z,25.1
2018-04-17T08:57:52.101Z,41.6
2018-04-17T09:12:52.113Z,24.9
2018-04-17T09:28:07.694Z,20.2
2018-04-17T10:03:05.283Z,22.4
2018-04-17T10:18:17.450Z,21.1
2018-04-17T10:33:17.706Z,15.3
2018-04-17T10:53:18.112Z,10.5
2018-04-17T11:08:19.147Z,8
2018-04-17T11:23:34.183Z,11.3
2018-04-17T11:43:34.210Z,9
2018-04-17T11:58:35.214Z,6.8
2018-04-17T12:13:33.965Z,5.8
2018-04-17T12:33:47.792Z,9.3
2018-04-17T13:03:47.702Z,9
2018-04-17T13:19:00.492Z,6.9
2018-04-17T14:29:12.914Z,7.7
2018-04-17T14:44:12.937Z,5.3
2018-04-17T14:59:24.059Z,4.9
2018-04-17T15:14:24.179Z,6.9
2018-04-17T15:34:37.732Z,4.7
2018-04-17T16:04:37.562Z,4.5
2018-04-17T16:24:50.289Z,7.2
2018-04-17T16:39:50.382Z,6.4
2018-04-17T16:54:50.282Z,6.9
2018-04-17T17:14:50.516Z,6.1
2018-04-17T17:30:02.175Z,10.3
2018-04-17T17:45:02.032Z,8.6
2018-04-17T18:00:02.059Z,4.8
2018-04-17T18:50:17.101Z,10
2018-04-17T19:25:29.222Z,9.7
2018-04-17T19:40:31.585Z,13.5
2018-04-17T19:55:45.592Z,10.1
2018-04-17T20:31:00.550Z,10.6
2018-04-17T20:46:00.439Z,11.5
2018-04-17T21:06:04.019Z,9
2018-04-17T21:51:13.987Z,11.2
2018-04-17T22:11:27.653Z,9.3
2018-04-17T22:41:28.816Z,9.7
2018-04-17T23:31:56.056Z,8.7
2018-04-17T23:46:55.976Z,8.8
